createdAt,value
2018-09-01T00:00:28.699Z,24.27
2018-09-01T00:02:55.055Z,24.23
2018-09-01T00:05:21.413Z,24.24
2018-09-01T00:07:47.805Z,24.21
2018-09-01T00:10:14.202Z,24.25
2018-09-01T00:12:40.696Z,24.21
2018-09-01T00:15:07.126Z,24.19
2018-09-01T00:17:33.529Z,24.19
2018-09-01T00:19:59.884Z,24.18
2018-09-01T00:22:26.291Z,24.17
2018-09-01T00:24:52.656Z,24.15
2018-09-01T00:27:19.077Z,24.15
2018-09-01T00:29:45.464Z,24.11
2018-09-01T00:32:11.837Z,24.11
2018-09-01T00:34:38.216Z,24.13
2018-09-01T00:37:04.615Z,24.12
2018-09-01T00:39:30.962Z,24.11
2018-09-01T00:41:57.352Z,24.09
2018-09-01T00:44:23.705Z,24.09
2018-09-01T00:46:50.111Z,24.06
2018-09-01T00:49:16.477Z,24.06
2018-09-01T00:51:42.861Z,24.05
2018-09-01T00:54:09.228Z,24.02
2018-09-01T00:56:35.642Z,24.02
2018-09-01T00:59:01.983Z,24.01
2018-09-01T01:01:28.375Z,23.97
2018-09-01T01:03:54.745Z,23.99
2018-09-01T01:06:21.241Z,23.97
2018-09-01T01:08:47.611Z,23.99
2018-09-01T01:11:14.003Z,23.92
2018-09-01T01:13:40.358Z,23.94
2018-09-01T01:16:06.766Z,23.94
2018-09-01T01:18:33.123Z,23.92
2018-09-01T01:20:59.528Z,23.90
2018-09-01T01:23:25.887Z,23.88
2018-09-01T01:25:52.289Z,23.87
2018-09-01T01:28:18.671Z,23.85
2018-09-01T01:30:45.027Z,23.85
2018-09-01T01:33:11.410Z,23.87
2018-09-01T01:35:37.773Z,23.82
2018-09-01T01:38:05.147Z,23.83
2018-09-01T01:40:31.507Z,23.76
2018-09-01T01:42:57.868Z,23.80
2018-09-01T01:45:24.216Z,23.80
2018-09-01T01:47:50.649Z,23.76
2018-09-01T01:50:17.100Z,23.77
2018-09-01T01:52:43.462Z,23.75
2018-09-01T01:55:09.859Z,23.75
2018-09-01T01:57:36.331Z,23.71
2018-09-01T02:00:02.764Z,23.71
2018-09-01T02:02:29.182Z,23.74
2018-09-01T02:04:55.527Z,23.71
2018-09-01T02:07:21.932Z,23.69
2018-09-01T02:09:48.291Z,23.69
2018-09-01T02:12:14.800Z,23.67
2018-09-01T02:14:41.157Z,23.69
2018-09-01T02:17:07.595Z,23.66
2018-09-01T02:19:34.002Z,23.67
2018-09-01T02:22:00.343Z,23.62
2018-09-01T02:24:26.772Z,23.62
2018-09-01T02:26:53.160Z,23.64
2018-09-01T02:31:51.911Z,23.61
2018-09-01T02:34:18.252Z,23.60
2018-09-01T02:36:44.638Z,23.56
2018-09-01T02:39:11.089Z,23.57
2018-09-01T02:41:37.470Z,23.56
2018-09-01T02:44:03.824Z,23.54
2018-09-01T02:46:30.191Z,23.55
2018-09-01T02:48:56.590Z,23.55
2018-09-01T02:51:22.939Z,23.55
2018-09-01T02:53:49.397Z,23.53
2018-09-01T02:56:15.747Z,23.52
2018-09-01T02:58:42.316Z,23.47
2018-09-01T03:01:08.666Z,23.51
2018-09-01T03:03:35.078Z,23.52
2018-09-01T03:06:01.431Z,23.49
2018-09-01T03:08:27.866Z,23.44
2018-09-01T03:10:54.229Z,23.43
2018-09-01T03:13:20.628Z,23.43
2018-09-01T03:15:47.015Z,23.44
2018-09-01T03:18:13.427Z,23.41
2018-09-01T03:20:39.843Z,23.40
2018-09-01T03:23:06.297Z,23.42
2018-09-01T03:25:36.664Z,23.43
2018-09-01T03:28:03.020Z,23.38
2018-09-01T03:30:29.424Z,23.43
2018-09-01T03:32:55.780Z,23.39
2018-09-01T03:35:22.193Z,23.35
2018-09-01T03:37:48.546Z,23.34
2018-09-01T03:40:14.921Z,23.38
2018-09-01T03:42:41.348Z,23.37
2018-09-01T03:45:07.687Z,23.38
2018-09-01T03:47:34.098Z,23.36
2018-09-01T03:50:00.450Z,23.32
2018-09-01T03:52:26.825Z,23.36
2018-09-01T03:54:53.199Z,23.32
2018-09-01T03:57:19.557Z,23.31
2018-09-01T03:59:45.968Z,23.31
2018-09-01T04:02:12.360Z,23.28
2018-09-01T04:04:38.814Z,23.29
2018-09-01T04:07:05.178Z,23.30
2018-09-01T04:09:31.590Z,23.30
2018-09-01T04:11:57.919Z,23.29
2018-09-01T04:14:24.296Z,23.30
2018-09-01T04:16:50.655Z,23.31
2018-09-01T04:19:17.012Z,23.30
2018-09-01T04:21:43.427Z,23.31
2018-09-01T04:24:09.770Z,23.32
2018-09-01T04:26:36.112Z,23.36
2018-09-01T04:29:02.502Z,23.32
2018-09-01T04:31:28.875Z,23.35
2018-09-01T04:33:55.210Z,23.36
2018-09-01T04:36:21.614Z,23.32
2018-09-01T04:38:47.972Z,23.41
2018-09-01T04:41:14.357Z,23.45
2018-09-01T04:43:40.680Z,23.46
2018-09-01T04:46:07.056Z,23.46
2018-09-01T04:48:33.453Z,23.49
2018-09-01T04:50:59.809Z,23.44
2018-09-01T04:53:26.144Z,23.46
2018-09-01T04:55:52.520Z,23.47
2018-09-01T04:58:18.839Z,23.49
2018-09-01T05:00:45.258Z,23.49
2018-09-01T05:03:11.611Z,23.56
2018-09-01T05:05:38.004Z,23.58
2018-09-01T05:08:04.331Z,23.58
2018-09-01T05:10:30.668Z,23.59
2018-09-01T05:12:57.077Z,23.62
2018-09-01T05:15:23.698Z,23.65
2018-09-01T05:17:50.069Z,23.66
2018-09-01T05:20:16.415Z,23.70
2018-09-01T05:22:42.743Z,23.72
2018-09-01T05:25:09.076Z,23.73
2018-09-01T05:27:35.456Z,23.75
2018-09-01T05:30:01.791Z,23.79
2018-09-01T05:32:28.157Z,23.82
2018-09-01T05:34:54.480Z,23.83
2018-09-01T05:37:20.881Z,23.85
2018-09-01T05:39:47.354Z,23.87
2018-09-01T05:42:13.883Z,23.88
2018-09-01T05:44:40.249Z,23.90
2018-09-01T05:47:06.648Z,23.92
2018-09-01T05:49:33.049Z,23.96
2018-09-01T05:51:59.408Z,23.98
2018-09-01T05:54:25.857Z,24.00
2018-09-01T05:56:52.184Z,24.03
2018-09-01T05:59:18.564Z,24.04
2018-09-01T06:01:44.934Z,24.05
2018-09-01T06:04:11.312Z,24.08
2018-09-01T06:06:37.769Z,24.09
2018-09-01T06:09:04.096Z,24.09
2018-09-01T06:11:30.447Z,24.11
2018-09-01T06:13:56.831Z,24.11
2018-09-01T06:16:23.218Z,24.13
2018-09-01T06:18:49.550Z,24.12
2018-09-01T06:21:15.928Z,24.13
2018-09-01T06:23:42.397Z,24.12
2018-09-01T06:26:09.030Z,24.13
2018-09-01T06:28:35.505Z,24.12
2018-09-01T06:31:01.855Z,24.13
2018-09-01T06:33:28.234Z,24.13
2018-09-01T06:35:54.751Z,24.12
2018-09-01T06:38:21.100Z,24.12
2018-09-01T06:40:47.556Z,24.12
2018-09-01T06:43:13.880Z,24.12
2018-09-01T06:45:40.285Z,24.13
2018-09-01T06:48:06.724Z,24.14
2018-09-01T06:50:33.110Z,24.17
2018-09-01T06:52:59.448Z,24.16
2018-09-01T06:55:25.943Z,24.17
2018-09-01T06:57:52.319Z,24.17
2018-09-01T07:00:18.643Z,24.18
2018-09-01T07:02:44.971Z,24.20
2018-09-01T07:05:11.489Z,24.19
2018-09-01T07:07:37.962Z,24.20
2018-09-01T07:10:04.308Z,24.21
2018-09-01T07:12:30.664Z,24.21
2018-09-01T07:14:57.001Z,24.20
2018-09-01T07:17:23.368Z,24.23
2018-09-01T07:19:49.697Z,24.23
2018-09-01T07:22:16.048Z,24.24
2018-09-01T07:24:42.393Z,24.24
2018-09-01T07:27:08.750Z,24.25
2018-09-01T07:29:35.125Z,24.25
2018-09-01T07:32:01.455Z,24.26
2018-09-01T07:34:27.767Z,24.26
2018-09-01T07:36:54.107Z,24.28
2018-09-01T07:39:20.479Z,24.29
2018-09-01T07:41:46.836Z,24.30
2018-09-01T07:44:13.169Z,24.31
2018-09-01T07:46:39.536Z,24.32
2018-09-01T07:49:06.091Z,24.34
2018-09-01T07:51:32.425Z,24.38
2018-09-01T07:53:58.820Z,24.38
2018-09-01T07:56:25.141Z,24.39
2018-09-01T07:58:51.489Z,24.40
2018-09-01T08:01:17.820Z,24.44
2018-09-01T08:03:44.315Z,24.44
2018-09-01T08:06:10.667Z,24.44
2018-09-01T08:08:36.996Z,24.46
2018-09-01T08:11:03.347Z,24.47
2018-09-01T08:13:29.739Z,24.49
2018-09-01T08:15:56.190Z,24.48
2018-09-01T08:18:22.515Z,24.53
2018-09-01T08:20:48.846Z,24.53
2018-09-01T08:23:15.255Z,24.54
2018-09-01T08:25:41.597Z,24.57
2018-09-01T08:28:07.971Z,24.56
2018-09-01T08:30:34.291Z,24.58
2018-09-01T08:33:00.631Z,24.58
2018-09-01T08:35:27.082Z,24.59
2018-09-01T08:37:53.530Z,24.61
2018-09-01T08:40:19.878Z,24.62
2018-09-01T08:42:46.233Z,24.62
2018-09-01T08:45:12.596Z,24.64
2018-09-01T08:47:38.951Z,24.64
2018-09-01T08:50:05.295Z,24.68
2018-09-01T08:52:31.620Z,24.68
2018-09-01T08:54:57.959Z,24.68
2018-09-01T08:57:24.291Z,24.69
2018-09-01T08:59:50.616Z,24.70
2018-09-01T09:02:16.935Z,24.71
2018-09-01T09:04:43.271Z,24.72
2018-09-01T09:07:09.627Z,24.72
2018-09-01T09:09:35.963Z,24.73
2018-09-01T09:12:02.294Z,24.76
2018-09-01T09:14:28.653Z,24.77
2018-09-01T09:16:55.079Z,24.77
2018-09-01T09:19:21.412Z,24.79
2018-09-01T09:21:47.787Z,24.80
2018-09-01T09:24:14.124Z,24.82
2018-09-01T09:26:40.659Z,24.82
2018-09-01T09:29:06.992Z,24.84
2018-09-01T09:31:33.457Z,24.85
2018-09-01T09:33:59.841Z,24.84
2018-09-01T09:36:26.177Z,24.86
2018-09-01T09:38:52.544Z,24.87
2018-09-01T09:41:18.860Z,24.89
2018-09-01T09:43:45.191Z,24.90
2018-09-01T09:46:11.582Z,24.90
2018-09-01T09:48:37.934Z,24.92
2018-09-01T09:51:04.264Z,24.92
2018-09-01T09:53:30.594Z,24.94
2018-09-01T09:55:56.946Z,24.95
2018-09-01T09:58:23.355Z,24.95
2018-09-01T10:00:49.663Z,24.97
2018-09-01T10:03:16.050Z,24.99
2018-09-01T10:05:42.556Z,24.98
2018-09-01T10:08:08.883Z,25.02
2018-09-01T10:10:35.314Z,25.00
2018-09-01T10:13:01.639Z,25.01
2018-09-01T10:15:28.022Z,24.98
2018-09-01T10:17:54.372Z,24.99
2018-09-01T10:20:20.801Z,25.03
2018-09-01T10:22:47.151Z,25.06
2018-09-01T10:25:13.497Z,25.06
2018-09-01T10:27:39.889Z,25.09
2018-09-01T10:30:06.220Z,25.09
2018-09-01T10:32:32.593Z,25.13
2018-09-01T10:34:59.032Z,25.12
2018-09-01T10:37:25.440Z,25.12
2018-09-01T10:39:51.769Z,25.15
2018-09-01T10:42:18.145Z,25.13
2018-09-01T10:44:44.512Z,25.18
2018-09-01T10:47:10.888Z,25.17
2018-09-01T10:49:37.296Z,25.17
2018-09-01T10:52:03.627Z,25.14
2018-09-01T10:54:29.957Z,25.13
2018-09-01T10:56:56.395Z,25.14
2018-09-01T10:59:22.849Z,25.22
2018-09-01T11:01:49.124Z,25.22
2018-09-01T11:04:15.494Z,25.22
2018-09-01T11:06:41.876Z,25.19
2018-09-01T11:09:08.285Z,25.19
2018-09-01T11:11:34.618Z,25.21
2018-09-01T11:14:00.988Z,25.22
2018-09-01T11:16:27.341Z,25.23
2018-09-01T11:18:53.727Z,25.22
2018-09-01T11:21:20.108Z,25.24
2018-09-01T11:23:46.480Z,25.25
2018-09-01T11:26:12.856Z,25.27
2018-09-01T11:28:39.231Z,25.27
2018-09-01T11:31:05.556Z,25.30
2018-09-01T11:33:31.924Z,25.29
2018-09-01T11:35:58.243Z,25.31
2018-09-01T11:38:24.571Z,25.32
2018-09-01T11:40:50.904Z,25.33
2018-09-01T11:43:17.286Z,25.34
2018-09-01T11:45:43.667Z,25.35
2018-09-01T11:48:10.051Z,25.35
2018-09-01T11:50:36.384Z,25.36
2018-09-01T11:53:02.794Z,25.36
2018-09-01T11:55:29.187Z,25.38
2018-09-01T11:57:55.571Z,25.38
2018-09-01T12:00:21.943Z,25.42
2018-09-01T12:02:48.340Z,25.42
2018-09-01T12:05:14.722Z,25.43
2018-09-01T12:07:41.129Z,25.44
2018-09-01T12:10:07.460Z,25.45
2018-09-01T12:12:33.840Z,25.45
2018-09-01T12:15:00.188Z,25.45
2018-09-01T12:17:26.553Z,25.46
2018-09-01T12:19:52.886Z,25.48
2018-09-01T12:22:19.305Z,25.48
2018-09-01T12:24:45.621Z,25.49
2018-09-01T12:27:12.021Z,25.48
2018-09-01T12:29:38.410Z,25.50
2018-09-01T12:32:04.760Z,25.51
2018-09-01T12:34:31.192Z,25.51
2018-09-01T12:36:57.633Z,25.51
2018-09-01T12:39:24.024Z,25.52
2018-09-01T12:41:50.416Z,25.54
2018-09-01T12:44:16.772Z,25.54
2018-09-01T12:46:43.162Z,25.54
2018-09-01T12:49:09.513Z,25.54
2018-09-01T12:51:35.947Z,25.56
2018-09-01T12:54:02.328Z,25.57
2018-09-01T12:56:28.684Z,25.56
2018-09-01T12:58:55.065Z,25.59
2018-09-01T13:01:21.398Z,25.58
2018-09-01T13:03:47.736Z,25.60
2018-09-01T13:06:14.077Z,25.61
2018-09-01T13:08:40.519Z,25.62
2018-09-01T13:11:06.878Z,25.63
2018-09-01T13:13:33.275Z,25.63
2018-09-01T13:15:59.667Z,25.64
2018-09-01T13:18:26.007Z,25.64
2018-09-01T13:20:52.366Z,25.64
2018-09-01T13:23:18.751Z,25.66
2018-09-01T13:25:45.079Z,25.67
2018-09-01T13:28:11.452Z,25.68
2018-09-01T13:30:37.856Z,25.68
2018-09-01T13:33:04.200Z,25.69
2018-09-01T13:35:30.692Z,25.69
2018-09-01T13:37:57.065Z,25.69
2018-09-01T13:40:23.396Z,25.69
2018-09-01T13:42:49.778Z,25.69
2018-09-01T13:45:16.183Z,25.71
2018-09-01T13:47:42.562Z,25.73
2018-09-01T13:50:08.917Z,25.73
2018-09-01T13:52:35.267Z,25.74
2018-09-01T13:55:01.595Z,25.75
2018-09-01T13:57:28.080Z,25.74
2018-09-01T13:59:54.319Z,25.75
2018-09-01T14:02:20.789Z,25.76
2018-09-01T14:04:47.140Z,25.77
2018-09-01T14:07:13.510Z,25.77
2018-09-01T14:09:39.840Z,25.75
2018-09-01T14:12:06.184Z,25.77
2018-09-01T14:14:32.538Z,25.77
2018-09-01T14:16:58.871Z,25.79
2018-09-01T14:19:25.223Z,25.79
2018-09-01T14:21:51.702Z,25.79
2018-09-01T14:24:18.118Z,25.79
2018-09-01T14:26:44.471Z,25.79
2018-09-01T14:29:10.816Z,25.79
2018-09-01T14:31:37.226Z,25.79
2018-09-01T14:34:03.559Z,25.80
2018-09-01T14:36:30.113Z,25.81
2018-09-01T14:38:56.324Z,25.80
2018-09-01T14:41:22.660Z,25.81
2018-09-01T14:43:49.017Z,25.82
2018-09-01T14:46:15.373Z,25.82
2018-09-01T14:48:41.748Z,25.82
2018-09-01T14:51:08.109Z,25.82
2018-09-01T14:53:34.443Z,25.83
2018-09-01T14:56:00.781Z,25.82
2018-09-01T14:58:27.151Z,25.82
2018-09-01T15:00:53.507Z,25.83
2018-09-01T15:03:19.870Z,25.86
2018-09-01T15:05:46.225Z,25.84
2018-09-01T15:08:12.557Z,25.86
2018-09-01T15:10:38.927Z,25.84
2018-09-01T15:13:05.254Z,25.83
2018-09-01T15:15:31.623Z,25.83
2018-09-01T15:17:58.092Z,25.83
2018-09-01T15:20:24.416Z,25.86
2018-09-01T15:22:50.812Z,25.84
2018-09-01T15:25:17.143Z,25.86
2018-09-01T15:27:43.480Z,25.87
2018-09-01T15:30:09.847Z,25.84
2018-09-01T15:32:36.316Z,25.84
2018-09-01T15:35:02.667Z,25.86
2018-09-01T15:37:29.044Z,25.87
2018-09-01T15:39:55.437Z,25.87
2018-09-01T15:42:21.800Z,25.87
2018-09-01T15:44:48.262Z,25.86
2018-09-01T15:47:14.606Z,25.86
2018-09-01T15:49:40.935Z,25.84
2018-09-01T15:52:07.331Z,25.84
2018-09-01T15:54:33.663Z,25.84
2018-09-01T15:56:59.996Z,25.84
2018-09-01T15:59:26.317Z,25.86
2018-09-01T16:01:52.652Z,25.84
2018-09-01T16:04:19.108Z,25.83
2018-09-01T16:06:45.544Z,25.83
2018-09-01T16:09:11.932Z,25.82
2018-09-01T16:11:38.262Z,25.82
2018-09-01T16:14:04.748Z,25.82
2018-09-01T16:16:31.084Z,25.83
2018-09-01T16:18:57.416Z,25.82
2018-09-01T16:21:23.790Z,25.80
2018-09-01T16:23:50.130Z,25.80
2018-09-01T16:26:16.528Z,25.81
2018-09-01T16:28:42.863Z,25.81
2018-09-01T16:31:09.209Z,25.79
2018-09-01T16:33:35.615Z,25.79
2018-09-01T16:36:01.960Z,25.79
2018-09-01T16:38:28.331Z,25.78
2018-09-01T16:40:54.684Z,25.78
2018-09-01T16:43:21.035Z,25.77
2018-09-01T16:45:47.416Z,25.77
2018-09-01T16:48:13.819Z,25.77
2018-09-01T16:50:40.205Z,25.75
2018-09-01T16:53:06.627Z,25.75
2018-09-01T16:55:33.022Z,25.74
2018-09-01T16:57:59.376Z,25.74
2018-09-01T17:00:25.749Z,25.73
2018-09-01T17:02:52.111Z,25.73
2018-09-01T17:05:18.472Z,25.72
2018-09-01T17:07:44.852Z,25.69
2018-09-01T17:10:11.280Z,25.69
2018-09-01T17:12:37.615Z,25.67
2018-09-01T17:15:03.970Z,25.66
2018-09-01T17:17:30.312Z,25.66
2018-09-01T17:19:56.682Z,25.64
2018-09-01T17:22:23.128Z,25.65
2018-09-01T17:24:49.456Z,25.63
2018-09-01T17:27:15.785Z,25.65
2018-09-01T17:29:42.208Z,25.63
2018-09-01T17:32:08.549Z,25.61
2018-09-01T17:34:34.960Z,25.60
2018-09-01T17:37:01.348Z,25.58
2018-09-01T17:39:27.687Z,25.58
2018-09-01T17:41:54.052Z,25.58
2018-09-01T17:44:20.375Z,25.57
2018-09-01T17:46:46.751Z,25.56
2018-09-01T17:49:13.101Z,25.54
2018-09-01T17:51:39.478Z,25.53
2018-09-01T17:54:05.829Z,25.52
2018-09-01T17:56:32.223Z,25.50
2018-09-01T17:58:58.590Z,25.53
2018-09-01T18:01:24.976Z,25.54
2018-09-01T18:03:51.365Z,25.50
2018-09-01T18:06:18.350Z,25.50
2018-09-01T18:08:45.553Z,25.46
2018-09-01T18:11:11.916Z,25.46
2018-09-01T18:13:38.285Z,25.46
2018-09-01T18:16:04.635Z,25.49
2018-09-01T18:18:30.984Z,25.45
2018-09-01T18:20:57.368Z,25.44
2018-09-01T18:23:23.691Z,25.40
2018-09-01T18:25:50.035Z,25.42
2018-09-01T18:28:16.424Z,25.40
2018-09-01T18:30:42.822Z,25.42
2018-09-01T18:33:09.165Z,25.40
2018-09-01T18:35:35.510Z,25.38
2018-09-01T18:38:01.916Z,25.36
2018-09-01T18:40:28.257Z,25.36
2018-09-01T18:42:54.591Z,25.36
2018-09-01T18:45:20.937Z,25.33
2018-09-01T18:47:47.332Z,25.32
2018-09-01T18:50:13.729Z,25.30
2018-09-01T18:52:40.183Z,25.32
2018-09-01T18:55:06.566Z,25.30
2018-09-01T18:57:32.979Z,25.31
2018-09-01T18:59:59.329Z,25.29
2018-09-01T19:02:25.685Z,25.30
2018-09-01T19:04:52.133Z,25.27
2018-09-01T19:07:18.675Z,25.25
2018-09-01T19:09:45.039Z,25.25
2018-09-01T19:12:11.473Z,25.24
2018-09-01T19:14:37.880Z,25.22
2018-09-01T19:17:04.237Z,25.21
2018-09-01T19:19:30.577Z,25.19
2018-09-01T19:21:56.940Z,25.18
2018-09-01T19:24:23.296Z,25.17
2018-09-01T19:26:49.639Z,25.18
2018-09-01T19:29:15.988Z,25.18
2018-09-01T19:31:42.319Z,25.15
2018-09-01T19:34:09.470Z,25.12
2018-09-01T19:36:35.827Z,25.12
2018-09-01T19:39:02.367Z,25.08
2018-09-01T19:41:28.731Z,25.07
2018-09-01T19:43:55.065Z,25.07
2018-09-01T19:46:21.474Z,25.05
2018-09-01T19:48:47.830Z,25.05
2018-09-01T19:51:14.235Z,25.02
2018-09-01T19:53:40.579Z,25.00
2018-09-01T19:56:06.907Z,25.00
2018-09-01T19:58:33.246Z,24.98
2018-09-01T20:00:59.588Z,24.97
2018-09-01T20:03:25.947Z,24.94
2018-09-01T20:05:52.264Z,24.95
2018-09-01T20:08:18.601Z,24.95
2018-09-01T20:10:44.988Z,24.94
2018-09-01T20:13:11.322Z,24.91
2018-09-01T20:15:37.705Z,24.88
2018-09-01T20:18:04.035Z,24.90
2018-09-01T20:20:30.366Z,24.89
2018-09-01T20:22:56.695Z,24.90
2018-09-01T20:25:23.187Z,24.88
2018-09-01T20:27:49.424Z,24.86
2018-09-01T20:30:15.832Z,24.84
2018-09-01T20:32:42.155Z,24.84
2018-09-01T20:35:08.500Z,24.84
2018-09-01T20:37:34.838Z,24.82
2018-09-01T20:40:01.223Z,24.83
2018-09-01T20:42:27.579Z,24.79
2018-09-01T20:44:53.955Z,24.80
2018-09-01T20:47:20.811Z,24.76
2018-09-01T20:49:47.147Z,24.72
2018-09-01T20:52:13.477Z,24.76
2018-09-01T20:54:39.823Z,24.74
2018-09-01T20:57:06.175Z,24.72
2018-09-01T20:59:32.503Z,24.70
2018-09-01T21:01:58.823Z,24.70
2018-09-01T21:04:25.305Z,24.69
2018-09-01T21:06:51.606Z,24.66
2018-09-01T21:09:17.939Z,24.66
2018-09-01T21:11:44.265Z,24.63
2018-09-01T21:14:10.604Z,24.65
2018-09-01T21:16:36.980Z,24.61
2018-09-01T21:19:03.326Z,24.66
2018-09-01T21:21:29.679Z,24.62
2018-09-01T21:23:56.022Z,24.61
2018-09-01T21:26:22.388Z,24.59
2018-09-01T21:28:48.746Z,24.59
2018-09-01T21:31:15.066Z,24.59
2018-09-01T21:33:42.900Z,24.57
2018-09-01T21:36:09.231Z,24.56
2018-09-01T21:38:35.570Z,24.55
2018-09-01T21:41:01.993Z,24.55
2018-09-01T21:43:28.343Z,24.54
2018-09-01T21:45:54.687Z,24.49
2018-09-01T21:48:21.036Z,24.49
2018-09-01T21:50:47.385Z,24.49
2018-09-01T21:53:13.718Z,24.49
2018-09-01T21:55:40.072Z,24.47
2018-09-01T21:58:06.429Z,24.47
2018-09-01T22:00:32.757Z,24.44
2018-09-01T22:02:59.110Z,24.44
2018-09-01T22:05:25.485Z,24.44
2018-09-01T22:07:51.830Z,24.44
2018-09-01T22:10:18.215Z,24.42
2018-09-01T22:12:44.586Z,24.41
2018-09-01T22:15:10.939Z,24.42
2018-09-01T22:17:37.295Z,24.40
2018-09-01T22:20:03.672Z,24.38
2018-09-01T22:22:30.066Z,24.40
2018-09-01T22:24:56.432Z,24.38
2018-09-01T22:27:22.800Z,24.33
2018-09-01T22:29:49.130Z,24.35
2018-09-01T22:32:15.516Z,24.33
2018-09-01T22:34:41.920Z,24.33
2018-09-01T22:37:08.272Z,24.32
2018-09-01T22:39:34.644Z,24.28
2018-09-01T22:42:01.051Z,24.30
2018-09-01T22:44:27.384Z,24.29
2018-09-01T22:46:53.743Z,24.28
2018-09-01T22:49:20.088Z,24.26
2018-09-01T22:51:46.477Z,24.28
2018-09-01T22:54:12.823Z,24.24
2018-09-01T22:56:39.203Z,24.26
2018-09-01T22:59:05.526Z,24.21
2018-09-01T23:01:31.893Z,24.25
2018-09-01T23:03:58.263Z,24.25
2018-09-01T23:06:24.588Z,24.19
2018-09-01T23:08:50.960Z,24.18
2018-09-01T23:11:17.299Z,24.19
2018-09-01T23:13:43.687Z,24.13
2018-09-01T23:16:10.024Z,24.14
2018-09-01T23:18:36.484Z,24.12
2018-09-01T23:21:02.857Z,24.14
2018-09-01T23:23:29.323Z,24.13
2018-09-01T23:25:55.694Z,24.10
2018-09-01T23:28:22.010Z,24.12
2018-09-01T23:30:48.447Z,24.10
2018-09-01T23:33:14.789Z,24.08
2018-09-01T23:35:41.129Z,24.06
2018-09-01T23:38:07.513Z,24.08
2018-09-01T23:40:33.904Z,24.08
2018-09-01T23:43:00.410Z,24.09
2018-09-01T23:45:26.740Z,24.05
2018-09-01T23:47:53.268Z,24.03
2018-09-01T23:50:19.631Z,23.98
2018-09-01T23:52:45.985Z,24.01
2018-09-01T23:55:12.320Z,23.99
2018-09-01T23:57:38.699Z,23.98
